Time;durP1;ratioP1;P1;durP2;ratioP2;P2;SDS_P1;SDS_P2;PMS_P1;PMS_P2;Temp;Humidity;BMP_temperature;BMP_pressure;BME280_temperature;BME280_humidity;BME280_pressure;Samples;Min_cycle;Max_cycle;Signal;HPM_P1;HPM_P2
2024/02/23 00:11:44;;;;;;;18.27;7.80;;;;;;;3.56;100.00;100908.38;31340315;28;20061;-81
2024/02/23 00:26:48;;;;;;;14.60;7.50;;;;;;;3.27;100.00;100912.34;31377396;28;20545;-80
2024/02/23 00:41:50;;;;;;;13.53;6.33;;;;;;;2.94;100.00;100907.34;31344648;28;20081;-80
2024/02/23 00:56:54;;;;;;;16.97;6.07;;;;;;;2.94;100.00;100886.69;31365136;28;20048;-79
2024/02/23 01:11:58;;;;;;;13.53;6.90;;;;;;;2.75;100.00;100873.19;31357157;28;20130;-80
2024/02/23 01:27:01;;;;;;;6.77;3.33;;;;;;;2.50;100.00;100886.00;31363924;28;20051;-81
2024/02/23 01:42:03;;;;;;;17.57;6.33;;;;;;;2.58;100.00;100895.00;31352143;28;20077;-79
2024/02/23 01:57:06;;;;;;;12.07;5.97;;;;;;;2.83;100.00;100904.44;31354800;28;20521;-80
2024/02/23 02:12:29;;;;;;;11.37;6.77;;;;;;;2.67;100.00;100925.09;31353864;28;20094;-79
2024/02/23 02:27:31;;;;;;;14.00;6.47;;;;;;;2.59;100.00;100904.59;31338986;28;20053;-76
2024/02/23 02:42:33;;;;;;;14.77;6.67;;;;;;;2.55;100.00;100888.41;31323847;28;20499;-74
2024/02/23 02:57:35;;;;;;;13.87;6.47;;;;;;;2.52;100.00;100878.38;31332060;28;20063;-74
2024/02/23 03:12:37;;;;;;;11.83;5.10;;;;;;;2.51;100.00;100908.22;31328751;28;20084;-76
2024/02/23 03:27:40;;;;;;;15.80;7.03;;;;;;;2.40;100.00;100895.28;31309321;28;20136;-76
2024/02/23 03:42:42;;;;;;;15.63;6.97;;;;;;;2.44;100.00;100913.38;31328411;28;20080;-75
2024/02/23 03:57:43;;;;;;;7.67;4.70;;;;;;;2.42;100.00;100919.06;31320661;28;20053;-76
2024/02/23 04:12:48;;;;;;;13.70;6.50;;;;;;;2.47;100.00;100923.41;31307008;28;20065;-74
2024/02/23 04:27:50;;;;;;;11.47;5.47;;;;;;;2.52;100.00;100931.22;31301624;28;20044;-76
2024/02/23 04:42:55;;;;;;;27.20;8.97;;;;;;;2.63;100.00;100932.25;31322377;28;20037;-76
2024/02/23 04:57:57;;;;;;;15.77;7.23;;;;;;;2.72;100.00;100951.63;31347674;28;20091;-75
2024/02/23 05:12:59;;;;;;;17.07;7.33;;;;;;;2.88;100.00;100952.44;31339665;28;20099;-75
2024/02/23 05:28:01;;;;;;;21.63;7.30;;;;;;;2.89;100.00;100945.16;31335119;28;20049;-76
2024/02/23 05:43:03;;;;;;;15.30;7.10;;;;;;;2.94;100.00;100969.81;31330380;28;20486;-74
2024/02/23 05:58:05;;;;;;;18.27;8.30;;;;;;;3.44;100.00;100973.72;31311900;28;20103;-75
2024/02/23 06:13:07;;;;;;;18.13;7.90;;;;;;;4.57;100.00;100991.41;31353496;28;20052;-76
2024/02/23 06:28:10;;;;;;;14.57;7.80;;;;;;;4.82;100.00;100993.78;31333996;28;20558;-75
2024/02/23 06:43:13;;;;;;;22.20;7.40;;;;;;;4.86;100.00;101006.19;31361932;28;20049;-75
2024/02/23 06:58:16;;;;;;;19.77;7.33;;;;;;;5.31;100.00;100993.84;31348223;28;20087;-75
2024/02/23 07:13:19;;;;;;;15.87;6.90;;;;;;;6.09;100.00;100984.22;31309938;28;20479;-76
2024/02/23 07:28:23;;;;;;;18.67;7.33;;;;;;;6.62;100.00;100992.16;31313346;28;20135;-76
2024/02/23 07:43:26;;;;;;;18.03;8.67;;;;;;;7.30;100.00;100978.13;31317096;28;20485;-75
2024/02/23 07:58:28;;;;;;;18.63;7.67;;;;;;;9.10;100.00;100980.03;31291504;28;20084;-75
2024/02/23 08:13:30;;;;;;;17.13;7.73;;;;;;;9.77;99.24;100991.97;31344457;28;20131;-75
2024/02/23 08:28:33;;;;;;;22.53;9.50;;;;;;;10.39;91.64;100989.47;31372975;28;20170;-75
2024/02/23 08:43:35;;;;;;;38.77;10.10;;;;;;;11.31;81.05;101006.34;31351209;28;20454;-74
2024/02/23 08:58:37;;;;;;;22.17;7.50;;;;;;;12.47;74.23;100971.66;31361235;28;20613;-74
2024/02/23 09:13:39;;;;;;;21.77;8.43;;;;;;;13.43;65.18;100974.88;31359951;28;20179;-75
2024/02/23 09:28:44;;;;;;;28.37;10.27;;;;;;;14.11;64.92;100975.13;31361956;28;20602;-76
2024/02/23 09:43:49;;;;;;;23.47;8.33;;;;;;;14.15;63.90;100964.16;31337185;28;20053;-76
2024/02/23 09:58:52;;;;;;;21.00;8.77;;;;;;;15.04;60.17;100952.00;31347485;28;20063;-77
2024/02/23 10:13:56;;;;;;;28.80;8.67;;;;;;;13.91;63.19;100961.50;31349698;28;20063;-75
2024/02/23 10:28:58;;;;;;;20.37;9.47;;;;;;;14.28;62.38;100971.25;31347259;28;20062;-76
2024/02/23 10:44:03;;;;;;;16.27;7.40;;;;;;;14.54;61.67;100985.97;31345823;28;20471;-78
2024/02/23 10:59:07;;;;;;;21.67;7.33;;;;;;;15.24;58.37;100954.63;31350190;28;20110;-78
2024/02/23 11:14:10;;;;;;;17.50;6.93;;;;;;;15.99;57.10;100958.91;31326731;28;20399;-79
2024/02/23 11:29:14;;;;;;;13.70;6.40;;;;;;;14.72;58.48;100962.91;31343348;28;20053;-78
2024/02/23 11:44:17;;;;;;;18.10;6.23;;;;;;;14.08;61.57;100953.38;31348169;28;20055;-77
2024/02/23 11:59:20;;;;;;;14.80;5.50;;;;;;;13.37;68.74;100968.34;31329674;28;20060;-79
2024/02/23 12:14:23;;;;;;;15.70;4.90;;;;;;;12.82;72.61;100954.00;31336650;28;20422;-77
2024/02/23 12:29:26;;;;;;;9.70;4.47;;;;;;;12.71;75.86;100963.53;31344647;28;20049;-76
2024/02/23 12:44:29;;;;;;;10.53;4.20;;;;;;;12.96;75.06;100963.94;31328120;28;20045;-74
2024/02/23 12:59:37;;;;;;;10.20;4.50;;;;;;;13.09;75.80;100961.38;31352374;28;20118;-75
2024/02/23 13:14:39;;;;;;;12.50;4.50;;;;;;;12.96;75.18;100974.84;31362762;28;20053;-75
2024/02/23 13:29:42;;;;;;;11.20;4.80;;;;;;;12.96;76.46;100985.75;31342702;28;20128;-78
2024/02/23 13:44:46;;;;;;;14.40;4.13;;;;;;;12.79;80.66;100973.13;31343827;28;20041;-76
2024/02/23 13:59:48;;;;;;;9.37;5.17;;;;;;;12.40;86.38;101001.69;31362770;28;20194;-76
2024/02/23 14:14:51;;;;;;;10.33;4.60;;;;;;;12.24;93.32;100996.84;31349066;28;20049;-76
2024/02/23 14:29:53;;;;;;;13.63;5.27;;;;;;;11.86;99.37;100992.59;31329539;28;20489;-76
2024/02/23 14:44:55;;;;;;;9.40;4.50;;;;;;;11.52;100.00;100996.03;31355412;28;20095;-76
2024/02/23 14:59:57;;;;;;;13.77;4.60;;;;;;;11.10;100.00;101005.31;31357848;28;20136;-79
2024/02/23 15:14:59;;;;;;;9.97;4.67;;;;;;;10.72;100.00;101030.78;31342690;28;20063;-76
2024/02/23 15:30:07;;;;;;;16.77;6.53;;;;;;;10.57;100.00;101036.31;31351206;28;20060;-77
2024/02/23 15:45:10;;;;;;;14.13;6.07;;;;;;;10.13;100.00;101031.41;31362040;28;20045;-78
2024/02/23 16:00:15;;;;;;;14.10;6.03;;;;;;;9.93;100.00;101041.91;31353720;28;20060;-80
2024/02/23 16:15:18;;;;;;;13.30;6.37;;;;;;;9.41;100.00;101064.44;31350179;28;20069;-78
2024/02/23 16:30:20;;;;;;;14.57;5.70;;;;;;;9.07;100.00;101062.06;31334909;28;20056;-75
2024/02/23 16:45:23;;;;;;;15.23;5.67;;;;;;;8.79;100.00;101089.06;31363550;28;20073;-74
2024/02/23 17:00:28;;;;;;;15.15;7.00;;;;;;;8.60;100.00;101113.75;31346767;28;20059;-77
2024/02/23 17:15:31;;;;;;;11.47;6.47;;;;;;;8.49;100.00;101109.06;31365354;28;20052;-83
2024/02/23 17:30:36;;;;;;;16.07;6.87;;;;;;;8.19;100.00;101106.53;31388761;28;20057;-82
2024/02/23 17:45:38;;;;;;;19.23;7.80;;;;;;;7.97;100.00;101115.69;31386548;28;20059;-81
2024/02/23 18:00:40;;;;;;;17.60;6.80;;;;;;;7.86;100.00;101141.84;31381714;28;20053;-84
2024/02/23 18:15:43;;;;;;;18.23;7.57;;;;;;;7.75;100.00;101159.91;31403156;28;20147;-81
2024/02/23 18:30:46;;;;;;;17.00;6.80;;;;;;;7.41;100.00;101148.38;31445937;28;20069;-83
2024/02/23 18:45:48;;;;;;;16.63;6.40;;;;;;;7.14;100.00;101156.59;31384705;28;20052;-81
2024/02/23 19:00:56;;;;;;;13.20;6.10;;;;;;;7.10;100.00;101169.28;31358910;28;20576;-79
2024/02/23 19:15:58;;;;;;;11.40;6.20;;;;;;;6.95;100.00;101180.28;31387101;28;20052;-84
2024/02/23 19:31:01;;;;;;;15.00;6.67;;;;;;;7.08;100.00;101173.53;31381101;28;20060;-82
2024/02/23 19:46:03;;;;;;;16.37;8.27;;;;;;;7.14;100.00;101182.81;31362585;28;20106;-79
2024/02/23 20:01:17;;;;;;;18.23;7.90;;;;;;;7.02;100.00;101181.16;31338705;28;20068;-80
2024/02/23 20:16:20;;;;;;;16.63;7.27;;;;;;;6.96;100.00;101163.72;31321190;28;20044;-81
2024/02/23 20:31:22;;;;;;;19.17;8.33;;;;;;;6.96;100.00;101161.03;31389966;28;20141;-78
2024/02/23 20:46:26;;;;;;;16.53;6.07;;;;;;;7.05;100.00;101182.34;31376151;28;20055;-79
2024/02/23 21:01:27;;;;;;;15.80;6.43;;;;;;;7.02;100.00;101191.97;31382526;28;20406;-77
2024/02/23 21:16:30;;;;;;;21.90;8.07;;;;;;;6.99;100.00;101195.38;31389586;28;20387;-80
2024/02/23 21:31:32;;;;;;;18.77;7.40;;;;;;;6.98;100.00;101207.34;31366048;28;20071;-81
2024/02/23 21:46:34;;;;;;;21.17;7.87;;;;;;;7.04;100.00;101216.66;31390042;28;20049;-79
2024/02/23 22:01:39;;;;;;;20.23;8.73;;;;;;;7.49;100.00;101223.75;31365587;28;20092;-83
2024/02/23 22:16:43;;;;;;;18.90;8.57;;;;;;;7.33;100.00;101239.38;31259187;28;20111;-78
2024/02/23 22:32:22;;;;;;;14.77;8.20;;;;;;;7.24;100.00;101221.91;31241324;28;20057;-81
2024/02/23 22:47:28;;;;;;;17.57;7.23;;;;;;;6.85;100.00;101244.56;31247135;28;20553;-83
2024/02/23 23:02:32;;;;;;;19.63;7.50;;;;;;;6.71;100.00;101246.28;31247878;28;20049;-81
2024/02/23 23:17:34;;;;;;;20.90;8.03;;;;;;;6.40;100.00;101237.34;31388364;28;20053;-84
2024/02/23 23:32:40;;;;;;;17.80;8.07;;;;;;;6.15;100.00;101228.09;31382703;28;20053;-83
2024/02/23 23:47:42;;;;;;;17.00;8.40;;;;;;;5.91;100.00;101236.53;31382801;28;20052;-82
